< < Back
Terminal Aerodrome Forecast


Current Version              Previous Versions:   1  2  3  4  5  6  7  8  9  

Terminal Aerodrome Forecast

748
FTUS42 KCAE 230500
TAFCAE
TAF
KCAE 230538Z 2306/2406 VRB03KT P6SM SCT200
     FM231600 33006KT P6SM SCT050 BKN150
     FM240000 VRB03KT P6SM BKN150=

Latest METAR

496
SAUS80 KWBC 231500
MTRCAE
METAR KCAE 231456Z 36004KT 10SM SCT150 32/22 A2995 RMK AO2 SLP136
T03220217 51003


USA.gov is the U.S. government's official web portal to all federal, state and local government web resources and services.